Time;durP1;ratioP1;P1;durP2;ratioP2;P2;SDS_P1;SDS_P2;PMS_P1;PMS_P2;Temp;Humidity;BMP_temperature;BMP_pressure;BME280_temperature;BME280_humidity;BME280_pressure;Samples;Min_cycle;Max_cycle;Signal;HPM_P1;HPM_P2
2021/09/19 00:02:18;;;;;;;;;13.25;13.25;;;;;;;;5040903;28;8855;-78
2021/09/19 00:04:46;;;;;;;;;12.25;12.25;;;;;;;;5043526;28;8852;-75
2021/09/19 00:07:13;;;;;;;;;12.50;12.50;;;;;;;;5026947;28;8885;-79
2021/09/19 00:09:41;;;;;;;;;14.00;13.50;;;;;;;;5042456;28;8867;-82
2021/09/19 00:12:08;;;;;;;;;14.25;14.25;;;;;;;;5043023;28;8919;-77
2021/09/19 00:14:36;;;;;;;;;13.50;13.50;;;;;;;;5043500;28;8828;-76
2021/09/19 00:17:04;;;;;;;;;12.00;10.00;;;;;;;;5041758;28;8832;-80
2021/09/19 00:19:32;;;;;;;;;15.75;14.00;;;;;;;;5039671;28;9042;-77
2021/09/19 00:22:01;;;;;;;;;10.50;10.50;;;;;;;;5039934;28;9038;-78
2021/09/19 00:24:28;;;;;;;;;9.00;9.00;;;;;;;;5043527;28;8859;-80
2021/09/19 00:26:55;;;;;;;;;12.25;12.25;;;;;;;;5043404;28;8938;-79
2021/09/19 00:29:23;;;;;;;;;12.50;12.50;;;;;;;;5043486;28;8872;-78
2021/09/19 00:31:50;;;;;;;;;13.75;12.00;;;;;;;;5043280;28;8905;-79
2021/09/19 00:34:17;;;;;;;;;11.25;10.25;;;;;;;;5043261;28;8851;-84
2021/09/19 00:36:45;;;;;;;;;12.50;12.50;;;;;;;;5042925;28;8852;-77
2021/09/19 00:39:13;;;;;;;;;12.50;12.00;;;;;;;;5041834;28;8882;-79
2021/09/19 00:41:40;;;;;;;;;11.00;11.00;;;;;;;;5042914;28;8871;-76
2021/09/19 00:44:09;;;;;;;;;13.25;13.25;;;;;;;;5043426;28;8870;-77
2021/09/19 00:46:37;;;;;;;;;10.50;10.50;;;;;;;;5041262;28;8945;-80
2021/09/19 00:49:05;;;;;;;;;12.50;11.75;;;;;;;;5043627;28;8836;-76
2021/09/19 00:51:33;;;;;;;;;11.50;11.50;;;;;;;;5042670;28;8852;-77
2021/09/19 00:54:00;;;;;;;;;13.00;13.00;;;;;;;;5043166;28;8859;-76
2021/09/19 00:56:30;;;;;;;;;11.00;8.00;;;;;;;;5041614;28;8959;-79
2021/09/19 00:58:58;;;;;;;;;10.50;10.50;;;;;;;;5025814;28;9633;-76
2021/09/19 01:01:25;;;;;;;;;10.00;10.00;;;;;;;;5041883;28;8812;-77
2021/09/19 01:03:53;;;;;;;;;8.50;8.50;;;;;;;;5044011;28;8906;-76
2021/09/19 01:06:20;;;;;;;;;11.75;11.75;;;;;;;;5039653;28;8955;-77
2021/09/19 01:08:48;;;;;;;;;13.50;12.00;;;;;;;;5041846;28;8863;-80
2021/09/19 01:11:16;;;;;;;;;10.00;8.75;;;;;;;;5038980;28;8840;-79
2021/09/19 01:13:46;;;;;;;;;13.00;10.75;;;;;;;;5043406;28;8887;-78
2021/09/19 01:16:16;;;;;;;;;12.00;10.75;;;;;;;;5042090;28;8877;-78
2021/09/19 01:18:44;;;;;;;;;10.00;10.00;;;;;;;;5042609;28;8844;-76
2021/09/19 01:21:13;;;;;;;;;12.25;11.00;;;;;;;;5044911;28;8982;-79
2021/09/19 01:23:45;;;;;;;;;9.50;6.75;;;;;;;;5048156;28;8878;-81
2021/09/19 01:26:13;;;;;;;;;12.75;10.00;;;;;;;;5045324;28;8856;-82
2021/09/19 01:28:40;;;;;;;;;10.50;10.50;;;;;;;;5047040;28;8862;-82
2021/09/19 01:31:07;;;;;;;;;8.75;8.75;;;;;;;;5044913;28;8834;-92
2021/09/19 01:33:34;;;;;;;;;10.25;10.25;;;;;;;;5046833;28;8852;-80
2021/09/19 01:36:08;;;;;;;;;12.00;12.00;;;;;;;;5045956;28;8878;-76
2021/09/19 01:38:35;;;;;;;;;13.75;13.00;;;;;;;;5028926;28;8939;-82
2021/09/19 01:41:04;;;;;;;;;11.00;11.00;;;;;;;;5044896;28;8858;-79
2021/09/19 01:43:31;;;;;;;;;11.75;11.75;;;;;;;;5046967;28;8871;-80
2021/09/19 01:46:00;;;;;;;;;13.25;13.25;;;;;;;;5046225;28;8878;-76
2021/09/19 01:48:28;;;;;;;;;13.00;12.25;;;;;;;;5026279;28;8901;-79
2021/09/19 01:50:55;;;;;;;;;12.50;11.50;;;;;;;;5045649;28;8880;-77
2021/09/19 01:53:22;;;;;;;;;12.00;12.00;;;;;;;;5046245;28;8886;-80
2021/09/19 01:55:49;;;;;;;;;11.75;11.75;;;;;;;;5045408;28;8881;-75
2021/09/19 01:58:18;;;;;;;;;9.25;9.25;;;;;;;;5045367;28;8874;-76
2021/09/19 02:00:46;;;;;;;;;15.00;15.00;;;;;;;;5043631;28;8822;-79
2021/09/19 02:03:13;;;;;;;;;14.75;14.75;;;;;;;;5046682;28;8860;-78
2021/09/19 02:05:41;;;;;;;;;10.75;10.75;;;;;;;;5045589;28;8863;-78
2021/09/19 02:08:10;;;;;;;;;15.25;15.00;;;;;;;;5025850;28;8936;-80
2021/09/19 02:10:37;;;;;;;;;11.50;11.50;;;;;;;;5044457;28;9648;-77
2021/09/19 02:13:04;;;;;;;;;13.75;13.00;;;;;;;;5046633;28;8895;-77
2021/09/19 02:15:33;;;;;;;;;18.00;15.50;;;;;;;;5044399;28;8878;-76
2021/09/19 02:18:01;;;;;;;;;17.75;17.75;;;;;;;;5045801;28;9679;-79
2021/09/19 02:20:28;;;;;;;;;20.00;17.50;;;;;;;;5040375;28;8878;-75
2021/09/19 02:22:56;;;;;;;;;30.67;26.67;;;;;;;;5045012;28;9002;-75
2021/09/19 02:25:23;;;;;;;;;23.00;23.00;;;;;;;;5036025;28;9309;-76
2021/09/19 02:27:50;;;;;;;;;24.00;22.67;;;;;;;;5042093;28;9100;-78
2021/09/19 02:30:18;;;;;;;;;28.00;28.00;;;;;;;;5044448;28;8987;-80
2021/09/19 02:32:46;;;;;;;;;35.00;32.00;;;;;;;;5043797;28;9212;-77
2021/09/19 02:35:14;;;;;;;;;31.00;31.00;;;;;;;;5044245;28;9265;-77
2021/09/19 02:37:42;;;;;;;;;30.00;30.00;;;;;;;;5045664;28;9425;-75
2021/09/19 02:40:11;;;;;;;;;34.25;30.00;;;;;;;;5004047;28;9420;-78
2021/09/19 02:42:39;;;;;;;;;43.75;36.50;;;;;;;;5046193;28;9639;-76
2021/09/19 02:45:08;;;;;;;;;42.00;36.75;;;;;;;;5044539;28;9499;-80
2021/09/19 02:47:35;;;;;;;;;42.75;38.00;;;;;;;;5045832;28;9720;-75
2021/09/19 02:50:08;;;;;;;;;40.00;33.33;;;;;;;;5044325;28;9468;-81
2021/09/19 02:52:36;;;;;;;;;34.33;32.00;;;;;;;;5031917;28;10136;-77
2021/09/19 02:55:04;;;;;;;;;30.00;29.33;;;;;;;;5039487;28;9354;-76
2021/09/19 02:57:32;;;;;;;;;38.00;33.33;;;;;;;;5043973;28;9475;-77
2021/09/19 02:59:59;;;;;;;;;33.00;30.67;;;;;;;;5044532;28;9197;-75
2021/09/19 03:02:26;;;;;;;;;30.67;25.67;;;;;;;;5043261;28;9077;-78
2021/09/19 03:04:54;;;;;;;;;29.00;29.00;;;;;;;;5045642;28;9073;-77
2021/09/19 03:07:22;;;;;;;;;32.67;27.00;;;;;;;;5026166;28;9120;-75
2021/09/19 03:09:50;;;;;;;;;25.33;24.33;;;;;;;;5043398;28;8993;-81
2021/09/19 03:12:17;;;;;;;;;19.00;18.67;;;;;;;;5045026;28;9067;-75
2021/09/19 03:14:44;;;;;;;;;25.67;25.67;;;;;;;;5043588;28;9023;-76
2021/09/19 03:17:12;;;;;;;;;26.33;23.33;;;;;;;;5026618;28;8935;-75
2021/09/19 03:19:39;;;;;;;;;30.33;27.67;;;;;;;;5042824;28;9002;-78
2021/09/19 03:22:06;;;;;;;;;26.33;25.00;;;;;;;;5027735;28;9104;-80
2021/09/19 03:24:35;;;;;;;;;23.67;22.33;;;;;;;;5044393;28;9072;-76
2021/09/19 03:27:03;;;;;;;;;23.67;21.33;;;;;;;;5040721;28;9668;-77
2021/09/19 03:29:30;;;;;;;;;27.67;26.00;;;;;;;;5042734;28;9008;-76
2021/09/19 03:31:57;;;;;;;;;27.33;26.00;;;;;;;;5042477;28;10012;-80
2021/09/19 03:34:25;;;;;;;;;29.50;28.00;;;;;;;;5027740;28;9269;-75
2021/09/19 03:36:53;;;;;;;;;25.33;24.33;;;;;;;;5025683;28;9207;-75
2021/09/19 03:39:20;;;;;;;;;23.33;23.33;;;;;;;;5038839;28;9213;-82
2021/09/19 03:41:48;;;;;;;;;21.33;21.33;;;;;;;;5036667;28;9133;-79
2021/09/19 03:44:16;;;;;;;;;19.33;19.33;;;;;;;;5041128;28;9056;-76
2021/09/19 03:46:43;;;;;;;;;22.00;20.33;;;;;;;;5041251;28;9111;-75
2021/09/19 03:49:10;;;;;;;;;25.00;21.33;;;;;;;;5042535;28;9106;-79
2021/09/19 03:51:37;;;;;;;;;18.00;17.33;;;;;;;;5043052;28;9002;-77
2021/09/19 03:54:05;;;;;;;;;18.67;18.67;;;;;;;;5040785;28;9029;-82
2021/09/19 03:56:32;;;;;;;;;18.00;18.00;;;;;;;;5044525;28;8967;-74
2021/09/19 03:59:01;;;;;;;;;20.33;18.00;;;;;;;;5043308;28;9046;-80
2021/09/19 04:01:28;;;;;;;;;15.00;13.67;;;;;;;;5043166;28;9129;-82
2021/09/19 04:03:55;;;;;;;;;19.00;19.00;;;;;;;;5042694;28;8932;-79
2021/09/19 04:06:22;;;;;;;;;16.00;16.00;;;;;;;;5043729;28;9038;-77
2021/09/19 04:08:50;;;;;;;;;22.67;19.33;;;;;;;;5043403;28;9106;-82
2021/09/19 04:11:17;;;;;;;;;17.67;17.67;;;;;;;;5043649;28;9110;-92
2021/09/19 04:13:44;;;;;;;;;18.50;18.00;;;;;;;;5045782;28;9831;-75
2021/09/19 04:16:13;;;;;;;;;22.67;18.00;;;;;;;;5042755;28;8858;-86
2021/09/19 04:18:40;;;;;;;;;17.33;17.33;;;;;;;;5043561;28;10033;-80
2021/09/19 04:21:07;;;;;;;;;18.00;17.33;;;;;;;;5040433;28;8934;-76
2021/09/19 04:23:35;;;;;;;;;12.33;10.67;;;;;;;;5044388;28;9015;-78
2021/09/19 04:26:02;;;;;;;;;13.67;13.67;;;;;;;;5043483;28;9042;-77
2021/09/19 04:28:30;;;;;;;;;16.00;13.67;;;;;;;;5042510;28;9627;-77
2021/09/19 04:30:57;;;;;;;;;15.33;11.67;;;;;;;;5043321;28;8939;-77
2021/09/19 04:33:25;;;;;;;;;19.00;17.00;;;;;;;;5042137;28;8947;-83
2021/09/19 04:35:53;;;;;;;;;16.33;16.33;;;;;;;;5043866;28;9310;-83
2021/09/19 04:38:20;;;;;;;;;17.67;17.67;;;;;;;;5042094;28;9103;-81
2021/09/19 04:40:47;;;;;;;;;21.33;20.33;;;;;;;;5042771;28;9206;-76
2021/09/19 04:43:14;;;;;;;;;16.00;16.00;;;;;;;;5043844;28;9159;-80
2021/09/19 04:45:42;;;;;;;;;16.33;13.67;;;;;;;;5043462;28;9194;-77
2021/09/19 04:48:10;;;;;;;;;16.00;16.00;;;;;;;;5041317;28;9075;-75
2021/09/19 04:50:39;;;;;;;;;18.00;18.00;;;;;;;;5043068;28;10023;-75
2021/09/19 04:53:06;;;;;;;;;15.00;14.67;;;;;;;;5043127;28;9241;-78
2021/09/19 04:55:33;;;;;;;;;20.67;17.00;;;;;;;;5041351;28;9092;-76
2021/09/19 04:58:01;;;;;;;;;16.33;13.67;;;;;;;;5041256;28;9278;-75
2021/09/19 05:00:28;;;;;;;;;18.00;18.00;;;;;;;;5037271;28;8946;-79
2021/09/19 05:02:55;;;;;;;;;17.33;17.33;;;;;;;;5046015;28;9088;-78
2021/09/19 05:05:23;;;;;;;;;15.00;15.00;;;;;;;;5047136;28;9223;-75
2021/09/19 05:07:52;;;;;;;;;19.33;17.67;;;;;;;;5045466;28;9242;-81
2021/09/19 05:10:19;;;;;;;;;16.00;16.00;;;;;;;;5028191;28;9219;-75
2021/09/19 05:12:46;;;;;;;;;16.00;16.00;;;;;;;;5046269;28;9158;-82
2021/09/19 05:15:14;;;;;;;;;18.33;16.67;;;;;;;;5039832;28;9489;-80
2021/09/19 05:17:41;;;;;;;;;20.00;18.00;;;;;;;;5047806;28;9339;-80
2021/09/19 05:20:10;;;;;;;;;19.00;17.33;;;;;;;;5049618;28;9342;-80
2021/09/19 05:22:38;;;;;;;;;15.00;15.00;;;;;;;;5025775;28;9272;-82
2021/09/19 05:25:07;;;;;;;;;15.00;15.00;;;;;;;;5044097;28;9267;-81
2021/09/19 05:27:34;;;;;;;;;18.00;18.00;;;;;;;;5047115;28;9202;-79
2021/09/19 05:30:02;;;;;;;;;16.33;16.33;;;;;;;;5045328;28;9247;-80
2021/09/19 05:32:29;;;;;;;;;15.33;12.00;;;;;;;;5045829;28;9297;-80
2021/09/19 05:34:56;;;;;;;;;11.67;11.67;;;;;;;;5040981;28;9272;-80
2021/09/19 05:37:24;;;;;;;;;15.00;15.00;;;;;;;;5045858;28;9272;-80
2021/09/19 05:39:51;;;;;;;;;21.67;19.00;;;;;;;;5044612;28;9263;-80
2021/09/19 05:42:20;;;;;;;;;18.00;15.00;;;;;;;;5046578;28;9321;-81
2021/09/19 05:44:47;;;;;;;;;15.67;15.67;;;;;;;;5029194;28;9426;-82
2021/09/19 05:47:14;;;;;;;;;12.33;12.33;;;;;;;;5045384;28;9427;-79
2021/09/19 05:49:42;;;;;;;;;15.67;13.67;;;;;;;;5045627;28;9341;-82
2021/09/19 05:52:09;;;;;;;;;19.33;15.67;;;;;;;;5043440;28;10076;-82
2021/09/19 05:54:36;;;;;;;;;16.67;15.67;;;;;;;;5045325;28;9336;-81
2021/09/19 05:57:04;;;;;;;;;19.33;18.00;;;;;;;;5036987;28;9316;-81
2021/09/19 05:59:33;;;;;;;;;16.33;16.33;;;;;;;;5024203;28;9294;-82
2021/09/19 06:02:00;;;;;;;;;20.00;16.67;;;;;;;;5037916;28;9280;-83
2021/09/19 06:04:27;;;;;;;;;18.00;16.75;;;;;;;;5017245;28;9423;-82
2021/09/19 06:06:55;;;;;;;;;23.00;23.00;;;;;;;;5045300;28;9392;-82
2021/09/19 06:09:22;;;;;;;;;18.00;17.00;;;;;;;;5041896;28;9575;-80
2021/09/19 06:11:49;;;;;;;;;20.50;20.50;;;;;;;;5037235;28;9360;-81
2021/09/19 06:14:16;;;;;;;;;24.67;18.67;;;;;;;;5044446;28;9493;-81
2021/09/19 06:16:45;;;;;;;;;19.67;17.67;;;;;;;;5044764;28;9411;-82
2021/09/19 06:19:12;;;;;;;;;22.33;22.33;;;;;;;;5042585;28;9390;-81
2021/09/19 06:21:40;;;;;;;;;25.50;23.75;;;;;;;;5042548;28;9346;-81
2021/09/19 06:24:07;;;;;;;;;23.33;21.67;;;;;;;;5024765;28;9430;-80
2021/09/19 06:26:35;;;;;;;;;26.67;24.67;;;;;;;;5044767;28;9259;-80
2021/09/19 06:29:02;;;;;;;;;17.33;17.33;;;;;;;;5045165;28;9335;-83
2021/09/19 06:31:29;;;;;;;;;22.33;22.33;;;;;;;;5021145;28;9152;-83
2021/09/19 06:33:58;;;;;;;;;22.33;21.33;;;;;;;;5040957;28;9307;-84
2021/09/19 06:36:26;;;;;;;;;20.33;18.67;;;;;;;;5044964;28;9093;-86
2021/09/19 06:38:53;;;;;;;;;19.67;19.67;;;;;;;;5045355;28;9112;-86
2021/09/19 06:41:21;;;;;;;;;18.00;18.00;;;;;;;;5045559;28;9532;-82
2021/09/19 06:43:48;;;;;;;;;24.67;21.33;;;;;;;;5043896;28;9220;-81
2021/09/19 06:46:15;;;;;;;;;26.67;22.00;;;;;;;;5044824;28;9077;-83
2021/09/19 06:48:43;;;;;;;;;22.00;20.33;;;;;;;;5044614;28;9064;-81
2021/09/19 06:51:11;;;;;;;;;22.00;21.00;;;;;;;;5044190;28;8963;-82
2021/09/19 06:53:39;;;;;;;;;26.25;21.75;;;;;;;;5042022;28;9116;-82
2021/09/19 06:56:07;;;;;;;;;19.75;19.75;;;;;;;;5025973;28;9454;-84
2021/09/19 06:58:34;;;;;;;;;25.33;25.33;;;;;;;;5025600;28;8848;-81
2021/09/19 07:01:02;;;;;;;;;29.25;28.25;;;;;;;;5044187;28;8880;-80
2021/09/19 07:03:29;;;;;;;;;21.50;20.25;;;;;;;;5046219;28;8879;-82
2021/09/19 07:05:56;;;;;;;;;21.75;21.25;;;;;;;;5043370;28;8883;-81
2021/09/19 07:08:25;;;;;;;;;25.00;24.00;;;;;;;;5044781;28;8867;-81
2021/09/19 07:10:53;;;;;;;;;23.75;21.00;;;;;;;;5039951;28;8956;-84
2021/09/19 07:13:21;;;;;;;;;28.00;21.50;;;;;;;;4994982;28;9476;-75
2021/09/19 07:15:52;;;;;;;;;25.00;25.00;;;;;;;;5043119;28;9599;-73
2021/09/19 07:18:19;;;;;;;;;21.00;17.75;;;;;;;;5044045;28;9637;-72
2021/09/19 07:20:47;;;;;;;;;25.00;25.00;;;;;;;;5044980;28;8860;-75
2021/09/19 07:23:14;;;;;;;;;28.00;25.00;;;;;;;;5039796;28;8862;-75
2021/09/19 07:25:43;;;;;;;;;22.25;21.00;;;;;;;;5042083;28;8978;-73
2021/09/19 07:28:12;;;;;;;;;29.25;26.75;;;;;;;;5042493;28;8871;-73
2021/09/19 07:30:41;;;;;;;;;26.00;23.00;;;;;;;;5039942;28;8934;-74
2021/09/19 07:33:08;;;;;;;;;23.25;21.00;;;;;;;;5035374;28;9518;-75
2021/09/19 07:35:36;;;;;;;;;21.75;18.75;;;;;;;;5039133;28;8858;-74
2021/09/19 07:38:03;;;;;;;;;26.25;24.00;;;;;;;;5034954;28;8914;-73
2021/09/19 07:40:32;;;;;;;;;24.25;24.25;;;;;;;;5008763;28;8838;-75
2021/09/19 07:43:02;;;;;;;;;27.50;24.25;;;;;;;;5041108;28;8874;-75
2021/09/19 07:45:32;;;;;;;;;25.25;25.25;;;;;;;;5042042;28;8848;-73
2021/09/19 07:48:01;;;;;;;;;24.50;24.50;;;;;;;;5035296;28;8868;-74
2021/09/19 07:50:28;;;;;;;;;24.25;24.25;;;;;;;;5041327;28;8860;-74
2021/09/19 07:52:56;;;;;;;;;27.75;27.75;;;;;;;;5023431;28;8864;-74
2021/09/19 07:55:26;;;;;;;;;27.50;25.25;;;;;;;;5016279;28;8848;-75
2021/09/19 07:57:53;;;;;;;;;21.00;21.00;;;;;;;;5029410;28;8867;-75
2021/09/19 08:00:22;;;;;;;;;22.50;22.50;;;;;;;;5041139;28;8856;-74
2021/09/19 08:02:49;;;;;;;;;25.00;23.00;;;;;;;;5035329;28;8872;-74
2021/09/19 08:05:16;;;;;;;;;28.00;24.25;;;;;;;;5041170;28;8872;-74
2021/09/19 08:07:44;;;;;;;;;32.00;29.00;;;;;;;;5040314;28;8860;-76
2021/09/19 08:10:12;;;;;;;;;24.25;24.25;;;;;;;;5039931;28;8860;-75
2021/09/19 08:12:41;;;;;;;;;23.25;23.25;;;;;;;;5040747;28;9639;-75
2021/09/19 08:15:09;;;;;;;;;30.50;26.25;;;;;;;;5041020;28;8868;-74
2021/09/19 08:17:39;;;;;;;;;26.75;26.75;;;;;;;;5041381;28;8893;-75
2021/09/19 08:20:08;;;;;;;;;28.25;25.75;;;;;;;;5040173;28;9688;-74
2021/09/19 08:22:35;;;;;;;;;29.50;25.25;;;;;;;;5041099;28;8864;-76
2021/09/19 08:25:06;;;;;;;;;24.50;24.50;;;;;;;;5039866;28;8851;-75
2021/09/19 08:27:34;;;;;;;;;26.25;22.75;;;;;;;;5040977;28;8883;-74
2021/09/19 08:30:01;;;;;;;;;21.25;19.50;;;;;;;;5040245;28;8860;-75
2021/09/19 08:32:29;;;;;;;;;21.25;21.25;;;;;;;;5036421;28;8821;-77
2021/09/19 08:34:58;;;;;;;;;25.00;23.50;;;;;;;;5040262;28;8840;-75
2021/09/19 08:37:26;;;;;;;;;29.75;26.50;;;;;;;;5038941;28;8867;-75
2021/09/19 08:39:53;;;;;;;;;19.75;17.00;;;;;;;;5029431;28;8872;-79
2021/09/19 08:42:20;;;;;;;;;29.50;25.50;;;;;;;;5019525;28;9582;-75
2021/09/19 08:44:48;;;;;;;;;19.50;19.50;;;;;;;;5042020;28;8860;-77
2021/09/19 08:47:16;;;;;;;;;23.75;21.50;;;;;;;;5041347;28;8848;-76
2021/09/19 08:49:44;;;;;;;;;22.00;22.00;;;;;;;;5041101;28;10033;-76
2021/09/19 08:52:13;;;;;;;;;27.75;27.75;;;;;;;;5032684;28;8862;-78
2021/09/19 08:54:41;;;;;;;;;21.50;21.00;;;;;;;;5037290;28;8874;-76
2021/09/19 08:57:08;;;;;;;;;22.25;21.50;;;;;;;;5039944;28;8864;-79
2021/09/19 08:59:46;;;;;;;;;24.00;21.00;;;;;;;;5036320;28;8973;-75
2021/09/19 09:02:15;;;;;;;;;19.00;19.00;;;;;;;;5038893;28;8829;-76
2021/09/19 09:04:43;;;;;;;;;18.25;16.75;;;;;;;;5040042;28;8923;-75
2021/09/19 09:07:13;;;;;;;;;21.50;19.50;;;;;;;;5037221;28;9731;-76
2021/09/19 09:09:53;;;;;;;;;20.80;20.20;;;;;;;;5037167;28;8848;-76
2021/09/19 09:12:21;;;;;;;;;22.20;20.80;;;;;;;;5039500;28;8985;-75
2021/09/19 09:14:51;;;;;;;;;17.60;16.80;;;;;;;;5038504;28;8868;-76
2021/09/19 09:17:20;;;;;;;;;26.20;23.60;;;;;;;;5038473;28;8844;-73
2021/09/19 09:19:50;;;;;;;;;23.60;23.40;;;;;;;;5039040;28;8906;-73
2021/09/19 09:22:23;;;;;;;;;23.00;22.20;;;;;;;;5040244;28;8872;-74
2021/09/19 09:25:11;;;;;;;;;26.20;23.80;;;;;;;;5038586;28;9413;-73
2021/09/19 09:27:40;;;;;;;;;21.00;21.00;;;;;;;;5038206;28;8852;-73
2021/09/19 09:30:16;;;;;;;;;22.80;22.60;;;;;;;;5038613;28;8894;-73
2021/09/19 09:32:55;;;;;;;;;22.60;22.20;;;;;;;;5036413;28;8860;-73
2021/09/19 09:35:24;;;;;;;;;21.80;21.80;;;;;;;;5036624;28;8882;-73
2021/09/19 09:37:53;;;;;;;;;20.00;20.00;;;;;;;;5039154;28;8856;-74
2021/09/19 09:40:26;;;;;;;;;20.60;20.60;;;;;;;;5036853;28;8874;-74
2021/09/19 09:43:08;;;;;;;;;21.80;19.40;;;;;;;;5041028;28;8899;-74
2021/09/19 09:45:37;;;;;;;;;22.00;22.00;;;;;;;;5036611;28;9639;-74
2021/09/19 09:48:22;;;;;;;;;16.40;16.40;;;;;;;;5022216;28;8894;-73
2021/09/19 09:50:49;;;;;;;;;18.80;18.80;;;;;;;;5034927;28;8965;-73
2021/09/19 09:53:21;;;;;;;;;21.00;21.00;;;;;;;;5026435;28;8855;-75
2021/09/19 09:55:50;;;;;;;;;21.40;20.40;;;;;;;;5039974;28;8884;-75
2021/09/19 09:58:19;;;;;;;;;25.00;22.40;;;;;;;;5042609;28;9729;-79
2021/09/19 10:00:48;;;;;;;;;24.60;22.60;;;;;;;;5032309;28;8796;-75
2021/09/19 10:03:15;;;;;;;;;17.80;15.80;;;;;;;;5022697;28;8993;-75
2021/09/19 10:05:43;;;;;;;;;19.60;19.60;;;;;;;;5040964;28;8856;-75
2021/09/19 10:08:10;;;;;;;;;20.40;20.40;;;;;;;;5034895;28;9006;-75
2021/09/19 10:10:43;;;;;;;;;22.80;21.60;;;;;;;;5040821;28;8844;-76
2021/09/19 10:13:12;;;;;;;;;18.20;17.80;;;;;;;;5041968;28;8871;-75
2021/09/19 10:15:40;;;;;;;;;20.40;19.60;;;;;;;;5040269;28;8868;-74
2021/09/19 10:18:09;;;;;;;;;21.40;21.40;;;;;;;;5041491;28;8859;-74
2021/09/19 10:20:42;;;;;;;;;17.00;17.00;;;;;;;;5042081;28;8895;-74
2021/09/19 10:23:15;;;;;;;;;17.20;17.20;;;;;;;;5042623;28;8843;-74
2021/09/19 10:25:51;;;;;;;;;17.80;17.80;;;;;;;;5033638;28;8873;-74
2021/09/19 10:28:38;;;;;;;;;17.40;16.40;;;;;;;;5038403;28;8871;-74
2021/09/19 10:31:31;;;;;;;;;19.80;18.60;;;;;;;;5038554;28;8801;-74
2021/09/19 10:34:01;;;;;;;;;19.40;18.40;;;;;;;;5035714;28;8867;-73
2021/09/19 10:36:45;;;;;;;;;21.20;21.20;;;;;;;;5039748;28;9039;-74
2021/09/19 10:39:20;;;;;;;;;17.20;17.20;;;;;;;;5038872;28;8891;-73
2021/09/19 10:42:25;;;;;;;;;20.00;20.00;;;;;;;;5035762;28;8859;-73
2021/09/19 10:45:02;;;;;;;;;19.80;19.80;;;;;;;;5041335;28;8836;-72
2021/09/19 10:47:33;;;;;;;;;17.80;17.80;;;;;;;;5034878;28;8872;-73
2021/09/19 10:50:26;;;;;;;;;15.60;15.60;;;;;;;;5037045;28;8935;-73
2021/09/19 10:52:55;;;;;;;;;23.60;22.60;;;;;;;;5040898;28;8933;-73
2021/09/19 10:55:26;;;;;;;;;16.40;16.40;;;;;;;;5041046;28;8874;-73
2021/09/19 10:57:59;;;;;;;;;17.00;17.00;;;;;;;;5010159;28;8935;-73
2021/09/19 11:00:29;;;;;;;;;11.80;11.80;;;;;;;;5026461;28;8782;-75
2021/09/19 11:03:05;;;;;;;;;23.00;22.80;;;;;;;;5035694;28;9014;-74
2021/09/19 11:05:33;;;;;;;;;18.00;16.20;;;;;;;;5035672;28;8863;-74
2021/09/19 11:08:32;;;;;;;;;16.20;16.20;;;;;;;;5040344;28;9757;-74
2021/09/19 11:11:20;;;;;;;;;16.80;15.20;;;;;;;;5032640;28;8878;-73
2021/09/19 11:13:53;;;;;;;;;19.20;16.20;;;;;;;;5037556;28;8891;-73
2021/09/19 11:16:27;;;;;;;;;16.80;14.60;;;;;;;;5040673;28;8898;-73
2021/09/19 11:18:56;;;;;;;;;16.60;16.60;;;;;;;;5040462;28;8864;-73
2021/09/19 11:21:32;;;;;;;;;18.40;17.40;;;;;;;;5026441;28;8903;-74
2021/09/19 11:24:01;;;;;;;;;15.60;15.60;;;;;;;;5039196;28;9496;-72
2021/09/19 11:26:30;;;;;;;;;14.00;14.00;;;;;;;;5040085;28;8884;-73
2021/09/19 11:29:00;;;;;;;;;16.40;16.40;;;;;;;;5039695;28;8913;-72
2021/09/19 11:31:29;;;;;;;;;16.60;16.60;;;;;;;;5032252;28;8888;-73
2021/09/19 11:33:58;;;;;;;;;14.80;14.60;;;;;;;;5041287;28;8890;-72
2021/09/19 11:36:25;;;;;;;;;17.80;15.80;;;;;;;;5036859;28;8927;-73
2021/09/19 11:38:55;;;;;;;;;15.60;15.60;;;;;;;;5038873;28;8876;-73
2021/09/19 11:41:23;;;;;;;;;17.00;17.00;;;;;;;;5038102;28;8888;-72
2021/09/19 11:43:52;;;;;;;;;14.20;14.00;;;;;;;;5039467;28;8859;-73
2021/09/19 11:46:22;;;;;;;;;16.80;16.40;;;;;;;;5042880;28;8878;-73
2021/09/19 11:48:51;;;;;;;;;13.20;13.20;;;;;;;;5037994;28;8859;-74
2021/09/19 11:51:19;;;;;;;;;13.00;13.00;;;;;;;;5043911;28;8966;-72
2021/09/19 11:53:48;;;;;;;;;16.80;16.80;;;;;;;;5042001;28;10002;-73
2021/09/19 11:56:16;;;;;;;;;17.00;15.40;;;;;;;;5043196;28;8884;-73
2021/09/19 11:58:44;;;;;;;;;17.20;15.60;;;;;;;;5042705;28;8852;-73
2021/09/19 12:01:11;;;;;;;;;15.40;14.60;;;;;;;;5043011;28;8796;-73
2021/09/19 12:03:41;;;;;;;;;21.60;20.20;;;;;;;;5044561;28;8860;-73
2021/09/19 12:06:11;;;;;;;;;16.20;14.40;;;;;;;;5042356;28;8889;-73
2021/09/19 12:08:38;;;;;;;;;13.00;11.00;;;;;;;;5044115;28;8897;-72
2021/09/19 12:11:06;;;;;;;;;14.00;14.00;;;;;;;;5035931;28;8870;-74
2021/09/19 12:13:36;;;;;;;;;12.60;12.60;;;;;;;;5043215;28;8905;-73
2021/09/19 12:16:07;;;;;;;;;16.20;14.80;;;;;;;;5041632;28;8855;-73
2021/09/19 12:18:36;;;;;;;;;17.60;16.60;;;;;;;;5042572;28;8856;-73
2021/09/19 12:21:07;;;;;;;;;14.20;13.40;;;;;;;;5044387;28;8839;-73
2021/09/19 12:23:44;;;;;;;;;18.40;18.40;;;;;;;;5042019;28;8860;-73
2021/09/19 12:26:16;;;;;;;;;17.00;15.20;;;;;;;;5044012;28;8875;-73
2021/09/19 12:28:43;;;;;;;;;14.80;13.20;;;;;;;;5042427;28;8868;-73
2021/09/19 12:31:12;;;;;;;;;15.40;13.80;;;;;;;;5042349;28;8820;-73
2021/09/19 12:33:53;;;;;;;;;11.40;11.40;;;;;;;;5042291;28;8887;-73
2021/09/19 12:36:22;;;;;;;;;14.80;14.80;;;;;;;;5042073;28;8878;-72
2021/09/19 12:38:51;;;;;;;;;14.80;13.20;;;;;;;;5042710;28;8890;-72
2021/09/19 12:41:18;;;;;;;;;13.60;13.60;;;;;;;;5041810;28;9722;-73
2021/09/19 12:43:46;;;;;;;;;16.40;15.60;;;;;;;;5040434;28;8856;-73
2021/09/19 12:46:15;;;;;;;;;11.60;11.60;;;;;;;;5042210;28;8878;-72
2021/09/19 12:48:44;;;;;;;;;15.80;15.80;;;;;;;;5040286;28;8880;-72
2021/09/19 12:51:16;;;;;;;;;12.60;12.60;;;;;;;;5042224;28;8882;-72
2021/09/19 12:53:47;;;;;;;;;15.20;15.20;;;;;;;;5038460;28;8871;-73
2021/09/19 12:56:16;;;;;;;;;12.20;11.80;;;;;;;;5043014;28;8876;-73
2021/09/19 12:58:45;;;;;;;;;15.20;13.20;;;;;;;;5023888;28;9665;-73
2021/09/19 13:01:13;;;;;;;;;13.60;13.60;;;;;;;;5043184;28;8799;-74
2021/09/19 13:03:40;;;;;;;;;13.40;11.80;;;;;;;;5043001;28;9687;-73
2021/09/19 13:06:09;;;;;;;;;15.60;13.40;;;;;;;;5042992;28;8870;-73
2021/09/19 13:08:36;;;;;;;;;13.20;13.20;;;;;;;;5043770;28;8914;-73
2021/09/19 13:11:04;;;;;;;;;10.60;10.60;;;;;;;;5041243;28;9593;-74
2021/09/19 13:13:33;;;;;;;;;7.60;7.60;;;;;;;;5044132;28;8883;-74
2021/09/19 13:16:00;;;;;;;;;11.00;11.00;;;;;;;;5042767;28;8879;-73
2021/09/19 13:18:27;;;;;;;;;14.00;13.20;;;;;;;;5046370;28;8874;-73
2021/09/19 13:20:54;;;;;;;;;12.80;12.80;;;;;;;;5047039;28;8893;-74
2021/09/19 13:23:22;;;;;;;;;12.20;10.60;;;;;;;;5038990;28;8978;-73
2021/09/19 13:25:49;;;;;;;;;13.60;13.60;;;;;;;;5046657;28;9625;-74
2021/09/19 13:28:16;;;;;;;;;9.00;4.00;;;;;;;;5045837;28;8856;-74
2021/09/19 13:30:45;;;;;;;;;14.80;14.80;;;;;;;;5017321;28;8768;-74
2021/09/19 13:33:12;;;;;;;;;9.40;9.40;;;;;;;;5027388;28;8840;-74
2021/09/19 13:35:39;;;;;;;;;15.00;14.40;;;;;;;;5043773;28;8852;-73
2021/09/19 13:38:07;;;;;;;;;13.00;13.00;;;;;;;;5045087;28;8843;-74
2021/09/19 13:40:34;;;;;;;;;11.00;11.00;;;;;;;;5047012;28;8867;-73
2021/09/19 13:43:03;;;;;;;;;12.40;10.80;;;;;;;;5045379;28;9586;-73
2021/09/19 13:45:30;;;;;;;;;12.80;12.80;;;;;;;;5036268;28;9740;-73
2021/09/19 13:48:01;;;;;;;;;12.80;12.80;;;;;;;;5046280;28;8867;-73
2021/09/19 13:50:28;;;;;;;;;8.00;8.00;;;;;;;;5027268;28;8855;-73
2021/09/19 13:52:55;;;;;;;;;12.00;12.00;;;;;;;;5045549;28;11493;-73
2021/09/19 13:55:23;;;;;;;;;9.40;9.40;;;;;;;;5045054;28;8863;-73
2021/09/19 13:57:50;;;;;;;;;11.80;11.80;;;;;;;;5045509;28;8866;-73
2021/09/19 14:00:17;;;;;;;;;10.00;10.00;;;;;;;;5044495;28;8917;-73
2021/09/19 14:02:45;;;;;;;;;11.00;11.00;;;;;;;;5045871;28;8873;-73
2021/09/19 14:05:13;;;;;;;;;10.40;10.40;;;;;;;;5045721;28;8862;-73
2021/09/19 14:07:40;;;;;;;;;9.60;9.60;;;;;;;;5043564;28;8870;-73
2021/09/19 14:10:08;;;;;;;;;11.20;11.00;;;;;;;;5046156;28;8848;-73
2021/09/19 14:12:36;;;;;;;;;15.40;15.40;;;;;;;;5045298;28;9731;-73
2021/09/19 14:15:03;;;;;;;;;16.40;14.60;;;;;;;;5045119;28;8852;-73
2021/09/19 14:17:30;;;;;;;;;14.00;14.00;;;;;;;;5043855;28;8881;-74
2021/09/19 14:19:58;;;;;;;;;10.60;10.60;;;;;;;;5044727;28;8855;-73
2021/09/19 14:22:27;;;;;;;;;13.40;13.40;;;;;;;;5041407;28;9673;-73
2021/09/19 14:24:55;;;;;;;;;12.80;11.60;;;;;;;;5041837;28;8891;-73
2021/09/19 14:27:22;;;;;;;;;14.20;13.00;;;;;;;;5044671;28;8847;-73
2021/09/19 14:29:49;;;;;;;;;12.00;12.00;;;;;;;;5045189;28;8864;-73
2021/09/19 14:32:16;;;;;;;;;10.80;10.80;;;;;;;;5045076;28;8829;-73
2021/09/19 14:34:45;;;;;;;;;11.60;11.60;;;;;;;;5044776;28;8902;-73
2021/09/19 14:37:12;;;;;;;;;13.00;11.40;;;;;;;;5045634;28;8975;-73
2021/09/19 14:39:41;;;;;;;;;14.60;14.60;;;;;;;;5044591;28;8998;-73
2021/09/19 14:42:08;;;;;;;;;13.80;12.80;;;;;;;;5044922;28;8896;-73